Strona główna
METAR-TAF:

METAR-TAF

Lotnisko :

Port lotniczy Chengdu-Shuangliu

Chengdu, Chiny

Szerokość geograficzna: 30-40N, Długość geograficzna: 104-01E, wysokość: 508 m

Aktualna obserwacja pogody

Raport powstał 21 minut temu, godzina 14:00 UTC
Cisza
Temperatura 27°C
Wilgotność 74%
Ciśnienie 1005 hPa
Widzialność 10 km lub więcej
Brak chmur poniżej 1500 m i brak chmur cumulonimbus

METAR: ZUUU 191400Z 00000MPS CAVOK 27/22 Q1005 NOSIG

czas: 22:21 (14:21 UTC)

Prognoza

Raport powstał 6 godziny i 18 minut temu, godzina 08:03 UTC
Prognoza ważna od 19 godzina 12 UTC do 20 godzina 12 UTC
Wiatr 6 kt od południowo-południowy zachód
Widzialność: 5000 m
Rozproszone chmury na wysokości 5000 ft
zamglenie

TAF: ZUUU 190803Z 1912/2012 20003MPS 5000 BR SCT050 TX30/2007Z TN23/1922Z

Obserwacja i prognoza pogody dla ponad 4000 lotnisk (raport METAR i TAF).

Dostępne stacje oznaczono żółtymi i czerwonymi punktami na mapie.

Najedź kursorem aby zobaczyć nazwę stacji.

Kliknij aby zobaczyć obserwacje i prognozy pogody.

Aby zmienić mapę: kliknij na zielony przycisk z czarnym krzyżykiem, aby powiększyć; na zielony przycisk z myślnikiem, aby pomniejszyć; na zielone strzałki, aby przejść do map sąsiednich.


METAR-TAF: